createdAt,value
2023-03-17T10:39:12.525Z,24.25
2023-03-17T10:43:12.549Z,24.66
2023-03-17T10:47:12.549Z,24.86
2023-03-17T10:51:12.178Z,25.04
2023-03-17T10:55:12.160Z,25.20
2023-03-17T10:59:12.150Z,25.34
2023-03-17T11:03:12.069Z,25.46
2023-03-17T11:07:12.130Z,25.55
2023-03-17T11:11:13.071Z,25.61
2023-03-17T11:15:13.030Z,25.67
2023-03-17T11:19:13.030Z,25.70
2023-03-17T11:23:13.021Z,25.70
2023-03-17T11:27:13.074Z,25.66
2023-03-17T11:47:13.202Z,25.29
2023-03-17T13:11:15.117Z,25.34
2023-03-17T13:39:19.728Z,25.33
2023-03-17T13:47:15.266Z,25.31
2023-03-17T13:51:15.542Z,25.29
2023-03-17T13:55:15.277Z,25.29
2023-03-17T13:59:15.584Z,25.28
2023-03-17T14:03:15.303Z,25.27
2023-03-17T14:07:15.386Z,25.26
2023-03-17T14:11:15.460Z,25.25
2023-03-17T14:15:15.569Z,25.24
2023-03-17T14:19:15.659Z,25.24
2023-03-17T14:23:15.769Z,25.25
2023-03-17T14:27:15.860Z,25.24
2023-03-17T14:31:15.972Z,25.24
2023-03-17T14:35:16.046Z,25.23
2023-03-17T14:39:16.145Z,25.22
2023-03-17T14:43:16.351Z,25.22
2023-03-17T14:47:16.367Z,25.20
2023-03-17T14:51:16.608Z,25.19
2023-03-17T14:55:16.620Z,25.16
2023-03-17T14:59:17.115Z,25.14
2023-03-17T15:03:17.121Z,25.13
2023-03-17T15:07:17.119Z,25.12
2023-03-17T15:11:17.120Z,25.11
2023-03-17T15:19:17.398Z,25.08
2023-03-17T15:31:17.883Z,25.03
2023-03-17T15:35:18.018Z,25.02
2023-03-17T16:19:19.706Z,24.85
2023-03-17T17:03:20.064Z,24.71
2023-03-17T17:07:20.113Z,24.68
2023-03-17T17:11:20.290Z,24.67
2023-03-17T17:15:20.376Z,24.64
2023-03-17T17:19:20.896Z,24.63
2023-03-17T22:43:24.134Z,24.13
2023-03-17T22:47:24.301Z,24.13
2023-03-17T22:51:24.822Z,24.12
2023-03-17T22:55:24.815Z,24.12
2023-03-17T22:59:24.828Z,24.11
2023-03-17T23:03:24.894Z,24.10
2023-03-17T23:07:25.322Z,24.10
2023-03-17T23:11:25.850Z,24.10
2023-03-17T23:15:25.405Z,24.10
2023-03-17T23:19:25.315Z,24.11
2023-03-17T23:23:25.397Z,24.10
2023-03-17T23:27:25.550Z,24.09
2023-03-17T23:31:25.811Z,24.09
2023-03-17T23:35:25.847Z,24.08
2023-03-17T23:39:26.332Z,24.08
2023-03-17T23:43:26.088Z,24.08
2023-03-17T23:47:26.373Z,24.08
2023-03-17T23:51:26.830Z,24.07
2023-03-17T23:55:26.821Z,24.08
2023-03-17T23:59:26.637Z,24.07
